NVVVNCRG

Guest
Details From NVVV - Bauerfield
To NCRG - Rarotonga Intl
Flight Number -
Tags decoded
Created
Modified
Stats Distance 2,297 nm / 4,255 km
Max Altitude 0 ft / 0 m
Waypoints 5
Social Downloads 0
Likes 0
Share VATSIM

Download

Looking for another format? Having issues loading an existing format? Contact us
Advertisement - Login to hide

Notes

Requested: NVVV NFFN NFTF NSFA NCRG

Route

NVVV NFFN NFTF NSFA NCRG

ID Type Via Altitude Latitude Longitude Leg Dist Tot Dist Heading (true) Name
O NVVV APT - 0 ft / 0 m -17.69818˚ 168.31754˚ - 0 nm - Bauerfield
NFFN APT - 0 ft / 0 m -17.75837˚ 177.44215˚ 521 nm 521 nm 92° / 89° Nadi Intl
NFTF APT - 0 ft / 0 m -21.24249˚ -175.14457˚ 468 nm 990 nm 118° / 115° Fua Amotu Intl
NSFA APT - 0 ft / 0 m -13.83002˚ -172.00910˚ 479 nm 1470 nm 22° / 22° Faleolo International
O NCRG APT - 0 ft / 0 m -21.20274˚ -159.80556˚ 826 nm 2297 nm 124° / 120° Rarotonga Intl

Altitude Profile

Advertisement - Login to hide

Weather


0- 5 10 15 20 25 30 35+ Temperature / ° C

Clouds and Precipitation
Forecast for 2017-12-12 18:00 UTC. Updated an hour ago

Ground ~20,000 ft ~40,000 ft Winds

NVVV

Details ICAO NVVV (VLI)
Name Bauerfield
Region Vanuatu
Timezone Pacific/Efate (UTC+11.0)
Stats Elevation 70 ft / 21 m (AMSL)
Location -17.698183° 168.317539°
Runways 1
Magnetic Variation 11.546° E

METAR

Not found

TAF

TAF NVVV 121000Z 1212/1312 VRB04KT 9999 SCT020 BKN110 PROB40 INTER 1212/1218 9000 -SHRA BKN018 OVC100

Decode

Departure Runways

ID Width Length Bearing (true) Bearing (mag) Surface Threshold Offset Overrun Length
11 148 ft / 45 m 8,531 ft / 2,600 m 118.01° 106.46° Asphalt 0 ft / 0 m 197 ft / 60 m
29 148 ft / 45 m 8,531 ft / 2,600 m 298.01° 286.46° Asphalt 0 ft / 0 m 197 ft / 60 m

NCRG

Details ICAO NCRG (RAR)
Name Rarotonga Intl
Region Cook Islands
Timezone Pacific/Rarotonga (UTC-10.0)
Stats Elevation 19 ft / 6 m (AMSL)
Location -21.202739° -159.805555°
Runways 1
Magnetic Variation 13.933° E

METAR

NCRG 121600Z 19002KT 9999 VCSH SCT005 SCT014 OVC038 25/24 Q1007 RMK REDZ

Decode

TAF

TAF NCRG 121107Z 1212/1312 34007KT 9999 SCT010 SCT040 PROB30 TEMPO 1212/1221 6000 SHRA BKN014

Decode

Destination Runways

ID Width Length Bearing (true) Bearing (mag) Surface Threshold Offset Overrun Length
08 150 ft / 46 m 7,629 ft / 2,325 m 89.99° 76.06° Concrete 400 ft / 122 m 100 ft / 30 m
26 150 ft / 46 m 7,629 ft / 2,325 m 269.98° 256.05° Concrete 0 ft / 0 m 0 ft / 0 m

Approach Navaids

Runway Type Ident Frequency Range Bearing (true) Bearing (mag) Slope Elevation
08 Localiser INO 109.90 MHz 18 nm / 33 km 89.79° 75.86° - 19 ft / 6 m (AMSL)
08 Glidescope INO 109.90 MHz 10 nm / 19 km 89.98° 76.05° 3.00° 19 ft / 6 m (AMSL)
08 DME INO 109.90 MHz 18 nm / 33 km - - - 19 ft / 6 m (AMSL)
26 Localiser IAV 110.30 MHz 18 nm / 33 km 270.19° 256.26° - 19 ft / 6 m (AMSL)
26 Glidescope IAV 110.30 MHz 10 nm / 19 km 269.98° 256.05° 3.00° 19 ft / 6 m (AMSL)
26 DME IAV 110.30 MHz 18 nm / 33 km - - - 19 ft / 6 m (AMSL)